createdAt,value
2022-09-20T00:01:10.146Z,1.45
2022-09-20T00:03:39.325Z,1.02
2022-09-20T00:06:09.011Z,1.20
2022-09-20T00:08:37.107Z,0.93
2022-09-20T00:11:06.631Z,1.30
2022-09-20T00:13:35.991Z,1.00
2022-09-20T00:16:06.466Z,1.13
2022-09-20T00:18:35.817Z,1.65
2022-09-20T00:21:04.545Z,1.48
2022-09-20T00:23:32.732Z,2.42
2022-09-20T00:26:01.982Z,1.33
2022-09-20T00:28:30.697Z,1.35
2022-09-20T00:30:58.527Z,1.35
2022-09-20T00:33:47.091Z,1.40
2022-09-20T00:36:16.163Z,1.65
2022-09-20T00:38:43.990Z,2.05
2022-09-20T00:41:12.316Z,0.80
2022-09-20T00:43:41.716Z,2.00
2022-09-20T00:46:22.058Z,0.90
2022-09-20T00:48:51.986Z,1.20
2022-09-20T00:51:27.868Z,1.42
2022-09-20T00:53:59.155Z,1.10
2022-09-20T00:56:31.889Z,1.33
2022-09-20T00:59:07.266Z,1.10
2022-09-20T01:01:35.232Z,0.93
2022-09-20T01:04:04.695Z,1.13
2022-09-20T01:06:34.804Z,1.38
2022-09-20T01:09:07.600Z,1.25
2022-09-20T01:11:36.495Z,0.75
2022-09-20T01:14:04.238Z,1.30
2022-09-20T01:16:33.789Z,1.45
2022-09-20T01:19:06.011Z,1.10
2022-09-20T01:21:35.609Z,1.50
2022-09-20T01:24:14.123Z,1.10
2022-09-20T01:26:58.991Z,2.22
2022-09-20T01:29:40.969Z,1.13
2022-09-20T01:32:13.721Z,2.22
2022-09-20T01:34:47.694Z,1.50
2022-09-20T01:37:23.274Z,1.75
2022-09-20T01:40:00.208Z,1.50
2022-09-20T01:42:33.903Z,1.35
2022-09-20T01:45:12.034Z,1.23
2022-09-20T01:47:44.968Z,0.77
2022-09-20T01:50:18.778Z,1.30
2022-09-20T01:53:10.617Z,1.13
2022-09-20T01:55:52.509Z,1.23
2022-09-20T01:59:02.025Z,1.27
2022-09-20T02:02:08.712Z,1.23
2022-09-20T02:05:11.548Z,1.40
2022-09-20T02:07:55.696Z,1.10
2022-09-20T02:10:55.904Z,1.17
2022-09-20T02:13:31.076Z,1.15
2022-09-20T02:16:30.142Z,1.48
2022-09-20T02:19:16.951Z,0.77
2022-09-20T02:21:53.409Z,1.42
2022-09-20T02:24:30.222Z,1.38
2022-09-20T02:27:10.424Z,0.98
2022-09-20T02:29:49.475Z,1.13
2022-09-20T02:32:30.117Z,1.65
2022-09-20T02:35:15.109Z,1.45
2022-09-20T02:37:55.895Z,1.58
2022-09-20T02:40:39.222Z,1.13
2022-09-20T02:43:17.790Z,1.02
2022-09-20T02:45:55.088Z,1.95
2022-09-20T02:48:28.536Z,1.65
2022-09-20T02:51:06.718Z,1.20
2022-09-20T02:53:41.859Z,0.85
2022-09-20T02:56:18.435Z,0.95
2022-09-20T02:58:56.307Z,0.85
2022-09-20T03:01:36.308Z,1.30
2022-09-20T03:04:19.354Z,1.27
2022-09-20T03:06:56.073Z,1.17
2022-09-20T03:09:34.843Z,1.45
2022-09-20T03:12:11.290Z,1.20
2022-09-20T03:14:46.089Z,1.67
2022-09-20T03:17:24.087Z,1.67
2022-09-20T03:20:10.208Z,1.38
2022-09-20T03:22:53.007Z,1.80
2022-09-20T03:25:35.205Z,1.50
2022-09-20T03:28:14.250Z,1.92
2022-09-20T03:30:53.785Z,1.55
2022-09-20T03:33:31.054Z,2.00
2022-09-20T03:36:15.038Z,1.45
2022-09-20T03:39:01.069Z,2.13
2022-09-20T03:41:45.741Z,1.52
2022-09-20T03:44:38.120Z,1.80
2022-09-20T03:47:25.379Z,2.80
2022-09-20T03:50:12.122Z,2.10
2022-09-20T03:53:02.927Z,2.42
2022-09-20T03:56:18.672Z,3.17
2022-09-20T03:59:01.527Z,3.30
2022-09-20T04:01:46.604Z,3.92
2022-09-20T04:04:24.294Z,2.63
2022-09-20T04:07:06.576Z,3.40
2022-09-20T04:09:57.938Z,2.35
2022-09-20T04:12:34.169Z,2.78
2022-09-20T04:15:17.264Z,2.38
2022-09-20T04:17:53.048Z,2.63
2022-09-20T04:20:29.438Z,2.28
2022-09-20T04:23:00.891Z,2.25
2022-09-20T04:25:36.159Z,2.10
2022-09-20T04:28:13.284Z,2.38
2022-09-20T04:30:43.912Z,2.10
2022-09-20T04:33:19.395Z,2.60
2022-09-20T04:36:13.819Z,2.55
2022-09-20T04:38:42.199Z,2.55
2022-09-20T04:41:29.469Z,3.40
2022-09-20T04:44:22.136Z,2.67
2022-09-20T04:47:44.333Z,2.92
2022-09-20T04:50:49.398Z,3.92
2022-09-20T04:53:44.429Z,2.45
2022-09-20T04:56:21.648Z,4.60
2022-09-20T04:58:53.467Z,3.78
2022-09-20T05:02:08.974Z,2.80
2022-09-20T05:05:20.475Z,3.17
2022-09-20T05:08:26.450Z,2.75
2022-09-20T05:11:21.340Z,3.25
2022-09-20T05:14:17.002Z,2.85
2022-09-20T05:17:02.884Z,3.17
2022-09-20T05:19:39.477Z,3.28
2022-09-20T05:22:37.444Z,3.55
2022-09-20T05:25:26.696Z,4.45
2022-09-20T05:28:02.802Z,4.28
2022-09-20T05:30:37.863Z,3.10
2022-09-20T05:33:20.325Z,3.05
2022-09-20T05:36:03.201Z,3.40
2022-09-20T05:38:44.217Z,3.50
2022-09-20T05:41:24.268Z,3.72
2022-09-20T05:43:59.406Z,3.42
2022-09-20T05:46:41.963Z,3.95
2022-09-20T05:49:19.776Z,3.55
2022-09-20T05:52:03.158Z,3.72
2022-09-20T05:54:48.287Z,3.28
2022-09-20T05:57:28.965Z,4.25
2022-09-20T06:00:04.090Z,3.47
2022-09-20T06:02:41.114Z,3.53
2022-09-20T06:05:16.475Z,3.83
2022-09-20T06:08:17.812Z,3.25
2022-09-20T06:11:04.243Z,2.97
2022-09-20T06:13:46.328Z,3.55
2022-09-20T06:16:22.812Z,3.13
2022-09-20T06:19:05.965Z,2.80
2022-09-20T06:21:43.118Z,3.55
2022-09-20T06:24:22.439Z,3.78
2022-09-20T06:26:54.766Z,3.47
2022-09-20T06:29:29.472Z,3.25
2022-09-20T06:31:57.112Z,3.55
2022-09-20T06:34:24.997Z,3.97
2022-09-20T06:37:18.675Z,3.60
2022-09-20T06:40:11.837Z,4.30
2022-09-20T06:42:40.742Z,3.97
2022-09-20T06:45:08.917Z,3.83
2022-09-20T06:47:38.851Z,3.40
2022-09-20T06:50:07.556Z,3.17
2022-09-20T06:52:35.540Z,2.83
2022-09-20T06:55:07.309Z,2.90
2022-09-20T06:57:38.250Z,2.80
2022-09-20T07:00:11.444Z,2.20
2022-09-20T07:02:39.072Z,2.85
2022-09-20T07:05:10.674Z,2.90
2022-09-20T07:07:38.220Z,3.20
2022-09-20T07:10:06.661Z,2.60
2022-09-20T07:12:35.010Z,2.22
2022-09-20T07:15:02.632Z,2.80
2022-09-20T07:17:31.498Z,2.30
2022-09-20T07:19:59.803Z,2.35
2022-09-20T07:22:27.431Z,2.20
2022-09-20T07:24:55.160Z,2.45
2022-09-20T07:27:25.497Z,3.10
2022-09-20T07:29:55.094Z,2.08
2022-09-20T07:32:22.700Z,3.15
2022-09-20T07:34:51.642Z,2.13
2022-09-20T07:37:19.305Z,2.63
2022-09-20T07:39:47.095Z,2.35
2022-09-20T07:42:15.041Z,2.40
2022-09-20T07:44:43.241Z,2.70
2022-09-20T07:47:12.470Z,2.60
2022-09-20T07:49:40.027Z,2.33
2022-09-20T07:52:10.312Z,2.78
2022-09-20T07:54:37.932Z,3.30
2022-09-20T07:57:05.671Z,2.33
2022-09-20T07:59:33.219Z,2.65
2022-09-20T08:02:00.932Z,2.55
2022-09-20T08:04:28.535Z,1.73
2022-09-20T08:06:58.682Z,2.10
2022-09-20T08:09:27.656Z,2.00
2022-09-20T08:11:56.414Z,2.08
2022-09-20T08:14:24.465Z,1.75
2022-09-20T08:16:52.552Z,1.90
2022-09-20T08:19:22.647Z,2.05
2022-09-20T08:21:51.404Z,2.22
2022-09-20T08:24:18.974Z,1.95
2022-09-20T08:26:49.173Z,1.80
2022-09-20T08:29:41.716Z,2.38
2022-09-20T08:32:11.337Z,2.15
2022-09-20T08:34:39.544Z,2.00
2022-09-20T08:37:07.298Z,1.88
2022-09-20T08:42:33.859Z,1.75
2022-09-20T08:45:06.541Z,1.45
2022-09-20T08:47:38.155Z,1.70
2022-09-20T08:50:09.835Z,1.80
2022-09-20T08:52:42.285Z,1.88
2022-09-20T08:55:16.564Z,2.00
2022-09-20T08:57:49.946Z,2.50
2022-09-20T09:00:19.720Z,1.83
2022-09-20T09:02:47.996Z,2.25
2022-09-20T09:05:31.410Z,2.42
2022-09-20T09:08:00.754Z,2.63
2022-09-20T09:10:31.599Z,3.22
2022-09-20T09:13:00.672Z,2.55
2022-09-20T09:15:32.002Z,3.35
2022-09-20T09:18:00.167Z,3.35
2022-09-20T09:20:28.165Z,3.33
2022-09-20T09:23:04.801Z,3.47
2022-09-20T09:25:34.231Z,2.40
2022-09-20T09:28:13.150Z,2.95
2022-09-20T09:30:42.855Z,3.15
2022-09-20T09:33:22.496Z,2.88
2022-09-20T09:35:59.022Z,2.33
2022-09-20T09:38:28.818Z,2.55
2022-09-20T09:40:58.498Z,2.15
2022-09-20T09:43:30.135Z,3.00
2022-09-20T09:46:18.322Z,2.35
2022-09-20T09:48:49.764Z,2.55
2022-09-20T09:51:19.498Z,2.88
2022-09-20T09:53:49.979Z,2.13
2022-09-20T09:56:33.338Z,2.30
2022-09-20T09:59:17.992Z,2.65
2022-09-20T10:01:55.479Z,2.38
2022-09-20T10:04:31.018Z,2.05
2022-09-20T10:07:09.125Z,2.53
2022-09-20T10:09:56.981Z,3.08
2022-09-20T10:12:48.580Z,2.67
2022-09-20T10:15:29.734Z,2.45
2022-09-20T10:18:11.266Z,2.85
2022-09-20T10:20:53.286Z,2.80
2022-09-20T10:24:03.232Z,2.40
2022-09-20T10:26:39.672Z,2.83
2022-09-20T10:29:17.976Z,2.00
2022-09-20T10:31:57.184Z,2.42
2022-09-20T10:34:54.945Z,1.85
2022-09-20T10:37:33.067Z,2.20
2022-09-20T10:40:14.326Z,1.88
2022-09-20T10:43:05.704Z,2.10
2022-09-20T10:48:35.379Z,1.10
2022-09-20T10:51:08.169Z,0.90
2022-09-20T10:53:44.647Z,1.70
2022-09-20T10:56:23.932Z,2.08
2022-09-20T10:59:07.517Z,0.73
2022-09-20T11:01:42.405Z,0.90
2022-09-20T11:04:37.549Z,1.10
2022-09-20T11:07:13.771Z,0.85
2022-09-20T11:09:46.070Z,1.27
2022-09-20T11:12:28.814Z,1.52
2022-09-20T11:15:00.674Z,1.10
2022-09-20T11:17:33.722Z,1.90
2022-09-20T11:20:09.473Z,1.20
2022-09-20T11:22:44.146Z,1.42
2022-09-20T11:25:21.641Z,1.30
2022-09-20T11:27:56.118Z,1.20
2022-09-20T11:30:24.948Z,1.20
2022-09-20T11:32:56.170Z,1.23
2022-09-20T11:35:31.407Z,2.00
2022-09-20T11:38:11.122Z,1.15
2022-09-20T11:40:44.179Z,1.83
2022-09-20T11:43:14.129Z,1.20
2022-09-20T11:45:44.045Z,0.95
2022-09-20T11:48:19.321Z,1.40
2022-09-20T11:51:08.873Z,1.90
2022-09-20T11:54:09.088Z,1.00
2022-09-20T11:56:36.783Z,1.20
2022-09-20T11:59:07.202Z,1.92
2022-09-20T12:01:37.516Z,1.40
2022-09-20T12:04:32.985Z,1.13
2022-09-20T12:07:10.353Z,1.20
2022-09-20T12:09:41.231Z,1.17
2022-09-20T12:12:22.237Z,1.65
2022-09-20T12:14:55.879Z,1.80
2022-09-20T12:18:04.342Z,1.40
2022-09-20T12:21:01.255Z,0.88
2022-09-20T12:24:08.609Z,1.20
2022-09-20T12:26:41.955Z,1.30
2022-09-20T12:29:52.858Z,1.00
2022-09-20T12:32:43.334Z,1.00
2022-09-20T12:35:57.669Z,1.20
2022-09-20T12:38:38.431Z,1.13
2022-09-20T12:41:10.057Z,1.40
2022-09-20T12:43:50.522Z,1.00
2022-09-20T12:46:27.027Z,1.30
2022-09-20T12:49:48.219Z,0.82
2022-09-20T12:52:47.077Z,6.68
2022-09-20T12:55:32.452Z,1.90
2022-09-20T12:58:04.188Z,1.00
2022-09-20T13:00:39.463Z,1.15
2022-09-20T13:03:13.511Z,1.05
2022-09-20T13:05:45.940Z,0.93
2022-09-20T13:08:20.174Z,1.25
2022-09-20T13:10:51.064Z,0.80
2022-09-20T13:13:30.252Z,0.73
2022-09-20T13:16:01.189Z,0.60
2022-09-20T13:18:30.245Z,1.55
2022-09-20T13:21:00.290Z,1.00
2022-09-20T13:23:30.345Z,0.50
2022-09-20T13:25:59.441Z,0.77
2022-09-20T13:28:34.154Z,0.47
2022-09-20T13:31:24.110Z,0.57
2022-09-20T13:33:52.524Z,0.93
2022-09-20T13:36:27.453Z,0.77
2022-09-20T13:38:57.989Z,0.82
2022-09-20T13:41:30.017Z,0.90
2022-09-20T13:43:57.989Z,0.80
2022-09-20T13:46:32.237Z,0.90
2022-09-20T13:49:14.656Z,0.80
2022-09-20T13:51:42.405Z,1.00
2022-09-20T13:54:22.351Z,0.80
2022-09-20T13:56:51.653Z,1.27
2022-09-20T13:59:20.166Z,1.25
2022-09-20T14:01:52.119Z,1.08
2022-09-20T14:04:23.711Z,0.98
2022-09-20T14:06:54.547Z,1.45
2022-09-20T14:09:28.606Z,0.90
2022-09-20T14:11:57.228Z,0.75
2022-09-20T14:14:26.108Z,0.98
2022-09-20T14:16:57.509Z,1.08
2022-09-20T14:19:30.650Z,2.53
2022-09-20T14:21:59.923Z,1.33
2022-09-20T14:24:31.821Z,0.75
2022-09-20T14:27:06.540Z,1.25
2022-09-20T14:29:40.900Z,0.88
2022-09-20T14:32:17.397Z,0.82
2022-09-20T14:34:46.942Z,0.68
2022-09-20T14:37:18.883Z,1.60
2022-09-20T14:39:50.282Z,6.95
2022-09-20T14:42:23.906Z,1.27
2022-09-20T14:44:53.387Z,1.52
2022-09-20T14:47:29.835Z,1.20
2022-09-20T14:49:59.874Z,1.23
2022-09-20T14:52:38.871Z,0.68
2022-09-20T14:55:21.345Z,0.85
2022-09-20T14:57:49.154Z,0.68
2022-09-20T15:00:20.594Z,2.47
2022-09-20T15:02:49.613Z,1.77
2022-09-20T15:05:21.401Z,0.90
2022-09-20T15:07:49.015Z,1.20
2022-09-20T15:10:16.810Z,0.50
2022-09-20T15:12:44.407Z,0.88
2022-09-20T15:15:17.342Z,0.52
2022-09-20T15:17:46.809Z,0.65
2022-09-20T15:20:23.209Z,1.52
2022-09-20T15:22:51.839Z,0.60
2022-09-20T15:25:21.408Z,0.80
2022-09-20T15:27:50.831Z,1.55
2022-09-20T15:30:20.870Z,0.85
2022-09-20T15:32:48.453Z,0.73
2022-09-20T15:35:17.445Z,0.40
2022-09-20T15:37:45.312Z,0.32
2022-09-20T15:40:13.444Z,0.30
2022-09-20T15:42:41.717Z,1.15
2022-09-20T15:45:11.032Z,2.42
2022-09-20T15:47:39.400Z,1.35
2022-09-20T15:50:08.480Z,1.10
2022-09-20T15:52:41.451Z,0.88
2022-09-20T15:55:09.956Z,0.68
2022-09-20T15:57:39.495Z,0.60
2022-09-20T16:00:08.634Z,0.57
2022-09-20T16:02:36.830Z,0.38
2022-09-20T16:05:05.835Z,0.60
2022-09-20T16:07:33.387Z,1.05
2022-09-20T16:10:02.452Z,0.73
2022-09-20T16:12:30.049Z,1.02
2022-09-20T16:14:57.649Z,0.60
2022-09-20T16:17:45.302Z,0.90
2022-09-20T16:20:11.994Z,1.20
2022-09-20T16:22:39.642Z,0.95
2022-09-20T16:25:09.409Z,1.00
2022-09-20T16:27:37.100Z,0.95
2022-09-20T16:30:05.669Z,1.00
2022-09-20T16:32:33.326Z,0.75
2022-09-20T16:35:03.816Z,0.40
2022-09-20T16:37:32.664Z,1.23
2022-09-20T16:40:00.414Z,0.90
2022-09-20T16:42:29.392Z,1.00
2022-09-20T16:44:57.012Z,1.23
2022-09-20T16:47:26.161Z,1.08
2022-09-20T16:49:54.437Z,0.70
2022-09-20T16:52:22.439Z,1.25
2022-09-20T16:54:50.121Z,1.00
2022-09-20T16:57:18.345Z,1.23
2022-09-20T16:59:47.888Z,0.95
2022-09-20T17:02:15.693Z,2.38
2022-09-20T17:04:43.570Z,1.73
2022-09-20T17:07:11.413Z,1.92
2022-09-20T17:09:39.341Z,2.15
2022-09-20T17:12:09.382Z,0.95
2022-09-20T17:14:38.101Z,1.20
2022-09-20T17:17:07.025Z,1.70
2022-09-20T17:19:34.734Z,2.03
2022-09-20T17:22:02.581Z,1.23
2022-09-20T17:24:30.476Z,1.27
2022-09-20T17:26:59.150Z,1.50
2022-09-20T17:29:27.578Z,1.13
2022-09-20T17:31:59.857Z,1.00
2022-09-20T17:34:29.801Z,1.45
2022-09-20T17:36:57.581Z,1.48
2022-09-20T17:39:25.402Z,1.50
2022-09-20T17:41:53.031Z,1.20
2022-09-20T17:44:21.443Z,1.52
2022-09-20T17:46:50.870Z,1.60
2022-09-20T17:49:20.479Z,2.05
2022-09-20T17:51:51.388Z,1.90
2022-09-20T17:54:20.100Z,2.58
2022-09-20T17:56:50.214Z,2.65
2022-09-20T17:59:19.351Z,2.50
2022-09-20T18:01:49.369Z,3.08
2022-09-20T18:04:17.623Z,3.80
2022-09-20T18:06:47.403Z,4.65
2022-09-20T18:09:18.323Z,5.22
2022-09-20T18:11:49.210Z,4.75
2022-09-20T18:14:17.817Z,2.78
2022-09-20T18:16:45.437Z,2.38
2022-09-20T18:19:14.098Z,2.70
2022-09-20T18:21:41.684Z,2.58
2022-09-20T18:24:10.995Z,1.90
2022-09-20T18:26:40.514Z,2.50
2022-09-20T18:29:11.059Z,2.00
2022-09-20T18:31:42.836Z,2.38
2022-09-20T18:34:17.869Z,2.50
2022-09-20T18:36:48.548Z,3.25
2022-09-20T18:39:16.156Z,4.32
2022-09-20T18:41:45.054Z,2.60
2022-09-20T18:44:13.741Z,4.97
2022-09-20T18:46:41.558Z,3.63
2022-09-20T18:49:10.557Z,3.30
2022-09-20T18:51:40.038Z,3.33
2022-09-20T18:54:10.098Z,4.30
2022-09-20T18:56:38.920Z,4.55
2022-09-20T18:59:13.746Z,5.45
2022-09-20T19:01:59.378Z,3.80
2022-09-20T19:04:57.641Z,4.55
2022-09-20T19:07:34.985Z,3.05
2022-09-20T19:10:13.016Z,3.35
2022-09-20T19:12:48.208Z,3.30
2022-09-20T19:15:30.990Z,3.28
2022-09-20T19:18:10.738Z,3.90
2022-09-20T19:20:45.372Z,3.85
2022-09-20T19:23:35.705Z,3.90
2022-09-20T19:26:08.780Z,4.50
2022-09-20T19:28:37.150Z,3.78
2022-09-20T19:31:07.239Z,4.18
2022-09-20T19:33:35.617Z,3.55
2022-09-20T19:36:04.062Z,4.00
2022-09-20T19:38:38.186Z,3.97
2022-09-20T19:41:20.741Z,4.13
2022-09-20T19:44:11.109Z,5.43
2022-09-20T19:46:48.076Z,4.30
2022-09-20T19:49:21.897Z,4.35
2022-09-20T19:51:49.957Z,4.15
2022-09-20T19:54:18.964Z,3.80
2022-09-20T19:56:53.827Z,3.03
2022-09-20T19:59:23.274Z,3.50
2022-09-20T20:01:53.559Z,4.72
2022-09-20T20:04:21.991Z,4.53
2022-09-20T20:06:59.925Z,3.95
2022-09-20T20:09:36.745Z,5.18
2022-09-20T20:12:10.066Z,4.18
2022-09-20T20:14:46.717Z,5.18
2022-09-20T20:17:26.760Z,4.63
2022-09-20T20:20:06.132Z,4.25
2022-09-20T20:23:00.859Z,4.45
2022-09-20T20:25:35.018Z,3.92
2022-09-20T20:28:02.915Z,3.42
2022-09-20T20:30:30.621Z,3.65
2022-09-20T20:33:00.763Z,3.15
2022-09-20T20:35:28.447Z,3.10
2022-09-20T20:37:56.078Z,3.35
2022-09-20T20:40:24.491Z,3.15
2022-09-20T20:42:57.091Z,2.95
2022-09-20T20:45:24.769Z,2.45
2022-09-20T20:47:57.964Z,2.67
2022-09-20T20:50:29.295Z,2.55
2022-09-20T20:52:57.382Z,2.78
2022-09-20T20:55:25.582Z,2.95
2022-09-20T20:57:58.195Z,3.30
2022-09-20T21:00:26.203Z,2.47
2022-09-20T21:02:58.873Z,3.10
2022-09-20T21:05:28.037Z,2.72
2022-09-20T21:07:56.359Z,3.25
2022-09-20T21:10:24.388Z,2.40
2022-09-20T21:12:55.118Z,2.90
2022-09-20T21:15:22.725Z,2.67
2022-09-20T21:17:54.903Z,3.05
2022-09-20T21:20:22.730Z,2.95
2022-09-20T21:22:51.663Z,2.30
2022-09-20T21:25:19.250Z,2.75
2022-09-20T21:27:46.888Z,3.47
2022-09-20T21:30:15.171Z,3.38
2022-09-20T21:32:42.822Z,2.97
2022-09-20T21:35:10.547Z,2.85
2022-09-20T21:37:38.182Z,2.50
2022-09-20T21:40:09.991Z,2.80
2022-09-20T21:42:37.567Z,2.75
2022-09-20T21:45:09.099Z,2.38
2022-09-20T21:47:36.674Z,2.42
2022-09-20T21:50:04.672Z,2.60
2022-09-20T21:52:32.289Z,3.08
2022-09-20T21:54:59.845Z,2.85
2022-09-20T21:57:29.574Z,3.10
2022-09-20T21:59:57.134Z,3.88
2022-09-20T22:02:24.790Z,3.75
2022-09-20T22:04:53.452Z,3.03
2022-09-20T22:07:21.183Z,2.95
2022-09-20T22:09:48.847Z,2.63
2022-09-20T22:12:16.658Z,2.55
2022-09-20T22:14:45.723Z,2.42
2022-09-20T22:17:13.291Z,2.70
2022-09-20T22:19:40.990Z,3.22
2022-09-20T22:22:08.824Z,2.55
2022-09-20T22:24:36.448Z,2.75
2022-09-20T22:27:04.081Z,2.70
2022-09-20T22:29:31.764Z,3.17
2022-09-20T22:32:00.834Z,2.92
2022-09-20T22:34:28.482Z,3.22
2022-09-20T22:36:57.053Z,3.30
2022-09-20T22:39:24.769Z,3.00
2022-09-20T22:41:52.376Z,3.10
2022-09-20T22:44:20.042Z,2.58
2022-09-20T22:46:47.711Z,2.97
2022-09-20T22:49:16.682Z,3.03
2022-09-20T22:51:44.277Z,3.38
2022-09-20T22:54:13.174Z,3.50
2022-09-20T22:56:41.223Z,2.67
2022-09-20T22:59:11.283Z,3.50
2022-09-20T23:01:42.174Z,3.20
2022-09-20T23:04:11.829Z,2.88
2022-09-20T23:06:42.698Z,2.92
2022-09-20T23:09:13.199Z,2.85
2022-09-20T23:11:44.299Z,2.65
2022-09-20T23:16:58.852Z,3.67
2022-09-20T23:19:26.540Z,2.60
2022-09-20T23:21:57.936Z,3.53
2022-09-20T23:24:25.561Z,3.50
2022-09-20T23:26:53.177Z,3.15
2022-09-20T23:29:20.815Z,3.88
2022-09-20T23:31:48.609Z,2.83
2022-09-20T23:34:17.439Z,2.92
2022-09-20T23:36:46.122Z,2.72
2022-09-20T23:39:15.926Z,3.40
2022-09-20T23:41:48.415Z,2.88
2022-09-20T23:44:18.372Z,2.67
2022-09-20T23:46:46.095Z,2.90
2022-09-20T23:49:13.665Z,2.35
2022-09-20T23:51:41.270Z,2.70
2022-09-20T23:54:08.852Z,3.00
2022-09-20T23:56:38.077Z,2.35
2022-09-20T23:59:05.696Z,2.95
